createdAt,value
2023-02-18T00:01:40.136Z,37.50
2023-02-18T00:04:08.244Z,37.20
2023-02-18T00:06:36.909Z,36.60
2023-02-18T00:09:06.365Z,36.00
2023-02-18T00:11:36.244Z,36.80
2023-02-18T00:14:07.889Z,37.10
2023-02-18T00:16:35.985Z,36.50
2023-02-18T00:19:07.307Z,36.20
2023-02-18T00:21:36.526Z,35.30
2023-02-18T00:24:06.102Z,34.90
2023-02-18T00:26:35.454Z,35.40
2023-02-18T00:29:04.363Z,35.60
2023-02-18T00:31:35.654Z,36.40
2023-02-18T00:34:05.039Z,34.40
2023-02-18T00:36:33.621Z,33.70
2023-02-18T00:39:04.489Z,32.50
2023-02-18T00:41:35.451Z,32.10
2023-02-18T00:44:03.587Z,31.60
2023-02-18T00:46:32.194Z,32.80
2023-02-18T00:49:02.749Z,32.50
2023-02-18T00:51:31.344Z,30.50
2023-02-18T00:53:59.414Z,31.70
2023-02-18T00:56:27.798Z,33.30
2023-02-18T00:58:55.949Z,32.10
2023-02-18T01:01:24.580Z,30.30
2023-02-18T01:03:52.780Z,30.80
2023-02-18T01:06:22.485Z,30.00
2023-02-18T01:08:50.686Z,29.80
2023-02-18T01:11:19.549Z,29.80
2023-02-18T01:13:47.861Z,31.20
2023-02-18T01:16:17.137Z,28.50
2023-02-18T01:18:46.410Z,30.50
2023-02-18T01:21:14.611Z,30.50
2023-02-18T01:23:43.839Z,30.30
2023-02-18T01:26:12.105Z,30.20
2023-02-18T01:28:41.704Z,28.70
2023-02-18T01:31:13.695Z,29.80
2023-02-18T01:33:42.439Z,28.60
2023-02-18T01:36:11.885Z,29.70
2023-02-18T01:38:40.768Z,28.20
2023-02-18T01:41:09.035Z,29.10
2023-02-18T01:43:37.960Z,28.40
2023-02-18T01:46:20.774Z,27.70
2023-02-18T01:48:57.263Z,28.20
2023-02-18T01:51:28.278Z,29.20
2023-02-18T01:54:25.572Z,27.10
2023-02-18T01:57:05.196Z,28.30
2023-02-18T01:59:39.626Z,29.60
2023-02-18T02:02:13.600Z,29.30
2023-02-18T02:04:42.272Z,28.40
2023-02-18T02:07:10.995Z,29.60
2023-02-18T02:09:41.023Z,29.80
2023-02-18T02:12:21.184Z,28.60
2023-02-18T02:14:57.946Z,28.60
2023-02-18T02:17:49.031Z,30.40
2023-02-18T02:20:46.007Z,30.90
2023-02-18T02:23:40.823Z,28.80
2023-02-18T02:26:56.057Z,31.30
2023-02-18T02:29:24.056Z,30.80
2023-02-18T02:32:29.720Z,32.10
2023-02-18T02:35:06.995Z,32.50
2023-02-18T02:37:50.234Z,29.90
2023-02-18T02:40:41.438Z,33.20
2023-02-18T02:43:22.316Z,31.90
2023-02-18T02:46:05.521Z,32.70
2023-02-18T02:48:48.889Z,33.40
2023-02-18T02:51:22.339Z,31.70
2023-02-18T02:53:50.896Z,32.80
2023-02-18T02:56:24.746Z,33.30
2023-02-18T02:59:01.883Z,33.30
2023-02-18T03:01:37.116Z,32.30
2023-02-18T03:04:42.739Z,32.80
2023-02-18T03:07:34.925Z,30.90
2023-02-18T03:10:18.671Z,30.80
2023-02-18T03:13:24.279Z,31.80
2023-02-18T03:15:58.974Z,32.10
2023-02-18T03:18:36.907Z,32.30
2023-02-18T03:21:15.396Z,31.50
2023-02-18T03:23:58.658Z,33.30
2023-02-18T03:26:31.643Z,32.10
2023-02-18T03:29:03.181Z,32.40
2023-02-18T03:31:34.856Z,34.10
2023-02-18T03:34:07.990Z,33.50
2023-02-18T03:36:38.102Z,33.30
2023-02-18T03:39:29.136Z,32.10
2023-02-18T03:41:57.375Z,31.90
2023-02-18T03:44:26.217Z,32.90
2023-02-18T03:46:54.558Z,33.20
2023-02-18T03:49:23.002Z,31.10
2023-02-18T03:51:51.060Z,31.30
2023-02-18T03:54:20.501Z,32.00
2023-02-18T03:56:48.701Z,31.50
2023-02-18T03:59:16.847Z,32.20
2023-02-18T04:01:44.961Z,31.60
2023-02-18T04:04:12.974Z,31.90
2023-02-18T04:06:41.090Z,32.60
2023-02-18T04:09:09.431Z,31.40
2023-02-18T04:11:41.002Z,31.90
2023-02-18T04:14:10.248Z,32.50
2023-02-18T04:16:38.478Z,32.20
2023-02-18T04:19:06.785Z,32.60
2023-02-18T04:21:35.020Z,31.90
2023-02-18T04:24:03.077Z,32.00
2023-02-18T04:26:31.084Z,32.50
2023-02-18T04:28:59.074Z,32.60
2023-02-18T04:31:27.461Z,32.80
2023-02-18T04:33:55.705Z,30.70
2023-02-18T04:36:23.765Z,31.20
2023-02-18T04:38:51.996Z,33.20
2023-02-18T04:41:20.186Z,32.80
2023-02-18T04:43:48.194Z,31.80
2023-02-18T04:46:16.339Z,31.10
2023-02-18T04:48:44.373Z,30.60
2023-02-18T04:51:12.401Z,32.10
2023-02-18T04:53:40.439Z,31.70
2023-02-18T04:56:09.059Z,29.60
2023-02-18T04:58:37.343Z,31.50
2023-02-18T05:01:05.866Z,30.90
2023-02-18T05:03:34.089Z,31.30
2023-02-18T05:06:02.181Z,31.30
2023-02-18T05:08:30.283Z,30.40
2023-02-18T05:10:58.287Z,30.60
2023-02-18T05:13:26.412Z,31.40
2023-02-18T05:15:54.579Z,30.10
2023-02-18T05:18:22.592Z,29.00
2023-02-18T05:20:50.670Z,30.80
2023-02-18T05:23:20.373Z,29.70
2023-02-18T05:25:48.524Z,29.80
2023-02-18T05:28:16.960Z,31.30
2023-02-18T05:30:45.187Z,30.50
2023-02-18T05:33:13.392Z,30.90
2023-02-18T05:35:41.503Z,30.30
2023-02-18T05:38:10.162Z,28.10
2023-02-18T05:40:39.070Z,31.90
2023-02-18T05:43:07.120Z,28.70
2023-02-18T05:45:35.611Z,28.70
2023-02-18T05:48:03.856Z,29.50
2023-02-18T05:50:32.295Z,26.00
2023-02-18T05:53:00.443Z,29.00
2023-02-18T05:55:28.499Z,26.20
2023-02-18T05:57:56.527Z,27.20
2023-02-18T06:00:25.546Z,27.10
2023-02-18T06:02:53.581Z,27.20
2023-02-18T06:05:21.667Z,27.20
2023-02-18T06:07:49.815Z,26.20
2023-02-18T06:10:20.600Z,25.40
2023-02-18T06:12:48.680Z,25.20
2023-02-18T06:15:16.763Z,24.50
2023-02-18T06:17:44.773Z,24.40
2023-02-18T06:20:12.969Z,24.20
2023-02-18T06:22:41.076Z,23.70
2023-02-18T06:25:09.136Z,24.00
2023-02-18T06:27:37.144Z,22.80
2023-02-18T06:30:05.942Z,22.20
2023-02-18T06:32:34.022Z,23.10
2023-02-18T06:35:02.619Z,20.90
2023-02-18T06:37:30.852Z,21.20
2023-02-18T06:39:58.930Z,19.60
2023-02-18T06:42:26.972Z,18.60
2023-02-18T06:44:54.977Z,17.30
2023-02-18T06:47:23.120Z,18.20
2023-02-18T06:49:51.268Z,16.70
2023-02-18T06:52:19.283Z,16.60
2023-02-18T06:54:47.332Z,16.90
2023-02-18T06:57:15.657Z,16.00
2023-02-18T06:59:43.938Z,15.50
2023-02-18T07:02:14.760Z,14.20
2023-02-18T07:04:42.784Z,13.40
2023-02-18T07:07:10.809Z,11.30
2023-02-18T07:09:38.825Z,10.40
2023-02-18T07:12:07.235Z,10.70
2023-02-18T07:14:35.352Z,9.20
2023-02-18T07:17:03.430Z,8.80
2023-02-18T07:19:31.524Z,9.40
2023-02-18T07:22:00.406Z,8.10
2023-02-18T07:24:28.501Z,7.90
2023-02-18T07:26:56.528Z,6.00
2023-02-18T07:29:24.589Z,7.10
2023-02-18T07:31:52.838Z,6.60
2023-02-18T07:34:21.018Z,6.60
2023-02-18T07:36:49.166Z,5.40
2023-02-18T07:39:20.840Z,5.30
2023-02-18T07:41:48.908Z,5.30
2023-02-18T07:44:17.203Z,5.70
2023-02-18T07:46:47.290Z,4.60
2023-02-18T07:49:16.341Z,5.00
2023-02-18T07:51:48.519Z,4.50
2023-02-18T07:54:17.086Z,4.30
2023-02-18T07:56:45.645Z,4.40
2023-02-18T07:59:14.726Z,4.20
2023-02-18T08:01:44.808Z,4.40
2023-02-18T08:04:13.481Z,4.70
2023-02-18T08:06:46.167Z,5.10
2023-02-18T08:09:14.952Z,4.40
2023-02-18T08:11:43.312Z,4.10
2023-02-18T08:14:11.548Z,4.10
2023-02-18T08:16:39.850Z,3.80
2023-02-18T08:19:08.666Z,3.60
2023-02-18T08:21:36.926Z,4.10
2023-02-18T08:24:05.302Z,4.30
2023-02-18T08:26:33.352Z,3.70
2023-02-18T08:29:01.423Z,3.70
2023-02-18T08:31:30.992Z,4.10
2023-02-18T08:34:00.780Z,3.50
2023-02-18T08:36:29.132Z,3.40
2023-02-18T08:38:58.138Z,3.50
2023-02-18T08:41:26.171Z,3.50
2023-02-18T08:43:54.270Z,3.40
2023-02-18T08:46:27.274Z,3.60
2023-02-18T08:49:01.661Z,3.40
2023-02-18T08:51:30.075Z,3.50
2023-02-18T08:53:58.604Z,3.80
2023-02-18T08:56:26.820Z,3.50
2023-02-18T08:58:54.840Z,3.40
2023-02-18T09:01:23.083Z,3.60
2023-02-18T09:03:51.248Z,3.80
2023-02-18T09:06:19.309Z,3.80
2023-02-18T09:08:47.539Z,3.60
2023-02-18T09:11:16.859Z,3.70
2023-02-18T09:13:44.964Z,3.30
2023-02-18T09:16:18.256Z,4.40
2023-02-18T09:18:48.208Z,3.30
2023-02-18T09:21:20.812Z,3.40
2023-02-18T09:23:49.938Z,3.60
2023-02-18T09:26:22.957Z,3.50
2023-02-18T09:28:51.958Z,3.00
2023-02-18T09:31:23.318Z,3.40
2023-02-18T09:33:55.052Z,3.20
2023-02-18T09:36:23.258Z,3.50
2023-02-18T09:38:51.751Z,3.70
2023-02-18T09:41:38.335Z,3.70
2023-02-18T09:44:14.658Z,3.60
2023-02-18T09:47:05.954Z,3.50
2023-02-18T09:49:40.756Z,3.60
2023-02-18T09:52:16.175Z,3.30
2023-02-18T09:54:44.411Z,3.50
2023-02-18T09:57:43.927Z,3.30
2023-02-18T10:00:35.229Z,3.60
2023-02-18T10:03:08.511Z,3.80
2023-02-18T10:05:37.473Z,4.30
2023-02-18T10:08:21.880Z,3.90
2023-02-18T10:10:50.197Z,4.30
2023-02-18T10:13:38.533Z,4.60
2023-02-18T10:16:08.417Z,4.50
2023-02-18T10:18:49.217Z,3.90
2023-02-18T10:21:24.356Z,4.60
2023-02-18T10:24:01.994Z,4.60
2023-02-18T10:26:33.703Z,4.60
2023-02-18T10:29:02.556Z,4.80
2023-02-18T10:31:37.619Z,4.10
2023-02-18T10:34:43.730Z,4.40
2023-02-18T10:37:39.845Z,4.40
2023-02-18T10:42:58.943Z,4.80
2023-02-18T10:45:57.385Z,4.50
2023-02-18T10:48:37.313Z,4.20
2023-02-18T10:51:15.859Z,4.10
2023-02-18T10:53:46.875Z,4.10
2023-02-18T10:56:51.533Z,4.20
2023-02-18T10:59:23.379Z,4.60
2023-02-18T11:02:03.905Z,4.40
2023-02-18T11:04:39.537Z,4.60
2023-02-18T11:07:21.531Z,4.10
2023-02-18T11:09:54.990Z,4.60
2023-02-18T11:12:26.596Z,4.20
2023-02-18T11:15:16.544Z,4.10
2023-02-18T11:18:05.425Z,4.50
2023-02-18T11:20:36.700Z,4.30
2023-02-18T11:23:07.350Z,5.00
2023-02-18T11:25:37.825Z,4.30
2023-02-18T11:28:25.030Z,4.20
2023-02-18T11:31:00.312Z,4.60
2023-02-18T11:33:43.565Z,4.70
2023-02-18T11:36:18.629Z,4.50
2023-02-18T11:38:58.905Z,4.80
2023-02-18T11:41:34.826Z,5.00
2023-02-18T11:44:06.167Z,5.30
2023-02-18T11:46:34.538Z,4.70
2023-02-18T11:49:22.478Z,7.10
2023-02-18T11:51:51.480Z,10.00
2023-02-18T11:54:27.185Z,9.60
2023-02-18T11:57:07.533Z,7.70
2023-02-18T11:59:39.397Z,7.70
2023-02-18T12:02:10.514Z,6.80
2023-02-18T12:04:47.045Z,5.80
2023-02-18T12:07:25.592Z,5.80
2023-02-18T12:10:01.241Z,4.70
2023-02-18T12:12:36.431Z,3.30
2023-02-18T12:15:04.729Z,2.80
2023-02-18T12:17:45.247Z,3.20
2023-02-18T12:20:18.761Z,2.80
2023-02-18T12:23:13.770Z,2.70
2023-02-18T12:25:44.755Z,3.10
2023-02-18T12:28:37.529Z,2.90
2023-02-18T12:31:26.220Z,2.70
2023-02-18T12:34:10.391Z,2.90
2023-02-18T12:37:06.306Z,2.80
2023-02-18T12:40:11.916Z,2.80
2023-02-18T12:43:21.536Z,2.90
2023-02-18T12:46:23.986Z,2.60
2023-02-18T12:48:57.840Z,2.30
2023-02-18T12:51:41.993Z,2.50
2023-02-18T12:54:46.286Z,2.20
2023-02-18T12:57:20.173Z,2.30
2023-02-18T13:00:23.594Z,2.10
2023-02-18T13:03:19.587Z,1.80
2023-02-18T13:06:03.002Z,2.30
2023-02-18T13:08:44.260Z,1.80
2023-02-18T13:11:14.925Z,1.90
2023-02-18T13:13:51.912Z,1.80
2023-02-18T13:16:21.359Z,2.00
2023-02-18T13:19:05.207Z,1.80
2023-02-18T13:21:36.169Z,1.50
2023-02-18T13:24:32.445Z,1.80
2023-02-18T13:27:29.440Z,1.70
2023-02-18T13:30:18.853Z,1.60
2023-02-18T13:32:49.447Z,1.50
2023-02-18T13:35:34.564Z,1.50
2023-02-18T13:38:03.035Z,1.60
2023-02-18T13:40:33.321Z,1.20
2023-02-18T13:43:28.642Z,1.70
2023-02-18T13:46:08.545Z,1.90
2023-02-18T13:48:54.972Z,1.20
2023-02-18T13:51:46.752Z,1.60
2023-02-18T13:54:17.597Z,1.40
2023-02-18T13:57:05.261Z,1.50
2023-02-18T13:59:38.047Z,1.50
2023-02-18T14:02:34.754Z,1.50
2023-02-18T14:05:09.421Z,1.50
2023-02-18T14:07:46.587Z,1.20
2023-02-18T14:10:18.431Z,1.50
2023-02-18T14:12:58.788Z,1.20
2023-02-18T14:15:26.905Z,1.30
2023-02-18T14:18:13.024Z,1.20
2023-02-18T14:20:41.108Z,1.20
2023-02-18T14:23:18.262Z,1.40
2023-02-18T14:26:09.441Z,1.30
2023-02-18T14:28:37.640Z,1.30
2023-02-18T14:31:36.036Z,1.40
2023-02-18T14:34:52.166Z,1.40
2023-02-18T14:37:41.560Z,1.30
2023-02-18T14:40:25.543Z,1.30
2023-02-18T14:43:02.405Z,1.30
2023-02-18T14:45:50.412Z,1.20
2023-02-18T14:48:24.459Z,1.10
2023-02-18T14:50:53.379Z,1.20
2023-02-18T14:53:25.077Z,1.30
2023-02-18T14:56:04.027Z,1.60
2023-02-18T14:58:37.150Z,1.40
2023-02-18T15:01:20.678Z,1.30
2023-02-18T15:03:50.994Z,1.50
2023-02-18T15:06:38.633Z,1.80
2023-02-18T15:09:15.872Z,1.50
2023-02-18T15:11:52.218Z,1.60
2023-02-18T15:14:23.574Z,1.30
2023-02-18T15:16:52.387Z,2.10
2023-02-18T15:19:24.915Z,1.50
2023-02-18T15:21:56.042Z,1.70
2023-02-18T15:24:32.821Z,1.70
2023-02-18T15:27:12.730Z,1.70
2023-02-18T15:29:40.986Z,1.90
2023-02-18T15:32:19.039Z,1.80
2023-02-18T15:34:51.395Z,1.60
2023-02-18T15:37:20.117Z,2.10
2023-02-18T15:39:48.578Z,1.70
2023-02-18T15:42:28.387Z,2.10
2023-02-18T15:45:02.460Z,2.10
2023-02-18T15:47:31.143Z,1.90
2023-02-18T15:50:02.899Z,2.30
2023-02-18T15:52:34.184Z,1.90
2023-02-18T15:55:12.045Z,1.70
2023-02-18T15:57:52.020Z,1.50
2023-02-18T16:00:28.187Z,1.70
2023-02-18T16:03:04.223Z,1.60
2023-02-18T16:05:37.492Z,1.70
2023-02-18T16:08:12.882Z,1.60
2023-02-18T16:10:53.596Z,1.80
2023-02-18T16:13:22.575Z,1.70
2023-02-18T16:15:51.752Z,1.50
2023-02-18T16:18:24.920Z,1.50
2023-02-18T16:20:58.053Z,1.40
2023-02-18T16:23:31.454Z,1.60
2023-02-18T16:26:21.117Z,1.50
2023-02-18T16:28:52.702Z,1.20
2023-02-18T16:31:21.783Z,1.50
2023-02-18T16:33:50.340Z,1.30
2023-02-18T16:36:26.341Z,1.30
2023-02-18T16:38:55.017Z,1.30
2023-02-18T16:41:23.021Z,1.40
2023-02-18T16:43:51.031Z,1.70
2023-02-18T16:46:23.013Z,1.20
2023-02-18T16:48:57.304Z,1.20
2023-02-18T16:51:32.096Z,1.30
2023-02-18T16:54:00.608Z,1.60
2023-02-18T16:56:32.520Z,1.30
2023-02-18T16:59:00.536Z,1.40
2023-02-18T17:01:34.869Z,1.40
2023-02-18T17:04:04.525Z,1.10
2023-02-18T17:06:33.255Z,1.20
2023-02-18T17:09:01.654Z,1.30
2023-02-18T17:11:33.117Z,1.20
2023-02-18T17:14:05.025Z,1.60
2023-02-18T17:16:33.149Z,1.30
2023-02-18T17:19:01.284Z,1.20
2023-02-18T17:21:29.523Z,1.40
2023-02-18T17:23:57.565Z,1.30
2023-02-18T17:26:28.120Z,1.50
2023-02-18T17:28:58.357Z,1.40
2023-02-18T17:31:29.714Z,1.30
2023-02-18T17:34:01.381Z,1.30
2023-02-18T17:36:29.474Z,1.40
2023-02-18T17:38:58.601Z,1.30
2023-02-18T17:41:26.656Z,1.10
2023-02-18T17:43:54.756Z,1.20
2023-02-18T17:46:22.871Z,1.30
2023-02-18T17:48:51.002Z,1.20
2023-02-18T17:51:27.421Z,1.40
2023-02-18T17:53:56.016Z,1.40
2023-02-18T17:56:24.259Z,1.60
2023-02-18T17:58:52.429Z,1.20
2023-02-18T18:01:23.254Z,1.40
2023-02-18T18:03:51.414Z,1.20
2023-02-18T18:06:21.436Z,1.30
2023-02-18T18:08:49.434Z,1.30
2023-02-18T18:11:21.613Z,1.20
2023-02-18T18:13:50.511Z,1.40
2023-02-18T18:16:20.088Z,1.30
2023-02-18T18:18:48.265Z,1.70
2023-02-18T18:21:32.542Z,1.40
2023-02-18T18:24:00.838Z,1.30
2023-02-18T18:26:30.031Z,1.30
2023-02-18T18:28:58.149Z,1.20
2023-02-18T18:31:26.358Z,1.50
2023-02-18T18:33:54.548Z,1.30
2023-02-18T18:36:24.364Z,1.10
2023-02-18T18:38:52.831Z,1.20
2023-02-18T18:41:25.310Z,1.30
2023-02-18T18:43:53.458Z,1.40
2023-02-18T18:46:21.566Z,1.60
2023-02-18T18:48:49.562Z,1.40
2023-02-18T18:51:25.088Z,1.50
2023-02-18T18:53:53.091Z,1.90
2023-02-18T18:56:22.006Z,1.60
2023-02-18T18:58:50.489Z,1.90
2023-02-18T19:01:22.666Z,1.80
2023-02-18T19:03:50.814Z,2.00
2023-02-18T19:06:18.943Z,1.60
2023-02-18T19:08:47.997Z,1.70
2023-02-18T19:11:17.482Z,1.70
2023-02-18T19:13:45.978Z,2.10
2023-02-18T19:16:26.612Z,1.70
2023-02-18T19:18:54.668Z,1.80
2023-02-18T19:21:22.802Z,1.80
2023-02-18T19:23:50.846Z,1.70
2023-02-18T19:26:19.060Z,1.50
2023-02-18T19:28:47.240Z,1.50
2023-02-18T19:31:15.905Z,1.90
2023-02-18T19:33:46.944Z,2.00
2023-02-18T19:36:15.092Z,1.80
2023-02-18T19:38:43.364Z,1.60
2023-02-18T19:41:17.022Z,1.40
2023-02-18T19:43:46.723Z,1.60
2023-02-18T19:46:18.226Z,1.50
2023-02-18T19:48:51.177Z,1.90
2023-02-18T19:51:21.391Z,1.50
2023-02-18T19:53:49.538Z,1.80
2023-02-18T19:56:17.937Z,1.70
2023-02-18T19:58:45.932Z,1.60
2023-02-18T20:01:17.968Z,2.00
2023-02-18T20:03:47.321Z,1.70
2023-02-18T20:06:20.119Z,1.40
2023-02-18T20:08:48.439Z,1.80
2023-02-18T20:11:16.711Z,1.90
2023-02-18T20:13:44.802Z,1.90
2023-02-18T20:16:13.010Z,1.70
2023-02-18T20:18:41.090Z,1.80
2023-02-18T20:21:13.032Z,1.80
2023-02-18T20:23:41.697Z,2.10
2023-02-18T20:26:11.129Z,1.80
2023-02-18T20:28:39.141Z,2.00
2023-02-18T20:31:10.019Z,2.00
2023-02-18T20:33:39.490Z,2.10
2023-02-18T20:36:08.710Z,2.20
2023-02-18T20:38:37.531Z,2.30
2023-02-18T20:41:05.658Z,2.00
2023-02-18T20:43:34.041Z,2.10
2023-02-18T20:46:08.251Z,2.00
2023-02-18T20:48:37.361Z,2.20
2023-02-18T20:51:11.987Z,2.50
2023-02-18T20:53:42.491Z,2.90
2023-02-18T20:56:11.200Z,2.00
2023-02-18T20:58:40.002Z,2.20
2023-02-18T21:01:14.275Z,2.30
2023-02-18T21:03:43.136Z,2.70
2023-02-18T21:06:15.339Z,2.90
2023-02-18T21:08:45.141Z,2.90
2023-02-18T21:11:16.024Z,2.50
2023-02-18T21:13:47.295Z,2.40
2023-02-18T21:16:17.433Z,2.90
2023-02-18T21:18:45.815Z,2.80
2023-02-18T21:21:14.323Z,3.30
2023-02-18T21:23:42.758Z,2.70
2023-02-18T21:26:13.692Z,3.20
2023-02-18T21:28:43.049Z,3.90
2023-02-18T21:31:20.458Z,4.40
2023-02-18T21:33:49.336Z,5.10
2023-02-18T21:36:18.207Z,4.90
2023-02-18T21:38:55.211Z,4.80
2023-02-18T21:41:24.037Z,5.60
2023-02-18T21:43:52.423Z,6.20
2023-02-18T21:46:23.399Z,7.40
2023-02-18T21:49:06.879Z,6.50
2023-02-18T21:51:57.366Z,6.30
2023-02-18T21:54:31.316Z,6.20
2023-02-18T21:57:00.958Z,6.40
2023-02-18T21:59:30.445Z,6.00
2023-02-18T22:02:00.424Z,6.10
2023-02-18T22:04:34.298Z,6.20
2023-02-18T22:07:03.449Z,6.80
2023-02-18T22:09:31.626Z,6.40
2023-02-18T22:11:59.656Z,6.80
2023-02-18T22:14:27.956Z,6.90
2023-02-18T22:16:56.225Z,6.40
2023-02-18T22:19:24.529Z,6.40
2023-02-18T22:21:52.582Z,6.90
2023-02-18T22:24:20.692Z,5.90
2023-02-18T22:26:50.411Z,6.50
2023-02-18T22:29:20.372Z,5.50
2023-02-18T22:31:49.775Z,6.10
2023-02-18T22:34:17.824Z,5.50
2023-02-18T22:36:46.470Z,6.60
2023-02-18T22:39:15.688Z,5.30
2023-02-18T22:41:44.054Z,6.10
2023-02-18T22:44:14.805Z,5.40
2023-02-18T22:46:43.178Z,5.90
2023-02-18T22:49:11.682Z,6.30
2023-02-18T22:51:42.388Z,5.70
2023-02-18T22:54:13.346Z,5.70
2023-02-18T22:56:42.382Z,5.30
2023-02-18T22:59:11.503Z,5.70
2023-02-18T23:01:41.966Z,5.40
2023-02-18T23:04:15.044Z,5.60
2023-02-18T23:06:45.461Z,5.70
2023-02-18T23:09:16.468Z,5.30
2023-02-18T23:11:44.934Z,5.40
2023-02-18T23:14:18.623Z,4.90
2023-02-18T23:17:08.016Z,5.30
2023-02-18T23:19:37.252Z,4.70
2023-02-18T23:22:05.815Z,4.80
2023-02-18T23:24:36.954Z,5.10
2023-02-18T23:27:06.378Z,5.20
2023-02-18T23:29:34.566Z,4.80
2023-02-18T23:32:03.716Z,5.20
2023-02-18T23:34:32.278Z,5.30
2023-02-18T23:37:00.473Z,5.40
2023-02-18T23:39:29.627Z,5.30
2023-02-18T23:41:58.049Z,5.30
2023-02-18T23:44:28.076Z,5.20
2023-02-18T23:46:56.411Z,5.60
2023-02-18T23:49:26.645Z,4.50
2023-02-18T23:51:56.954Z,5.50
2023-02-18T23:54:25.570Z,4.70
2023-02-18T23:56:53.720Z,5.00
2023-02-18T23:59:21.778Z,5.50
